sensor_id;sensor_type;location;lat;lon;timestamp;P1;durP1;ratioP1;P2;durP2;ratioP2
76966;SDS011;65904;52.278;20.972;2023-11-19T00:02:18;23.92;;;11.55;;
76966;SDS011;65904;52.278;20.972;2023-11-19T00:05:04;26.00;;;11.65;;
76966;SDS011;65904;52.278;20.972;2023-11-19T00:07:53;25.15;;;13.20;;
76966;SDS011;65904;52.278;20.972;2023-11-19T00:10:39;27.85;;;12.90;;
76966;SDS011;65904;52.278;20.972;2023-11-19T00:13:27;24.33;;;12.65;;
76966;SDS011;65904;52.278;20.972;2023-11-19T00:16:12;33.05;;;14.15;;
76966;SDS011;65904;52.278;20.972;2023-11-19T00:18:59;30.27;;;14.20;;
76966;SDS011;65904;52.278;20.972;2023-11-19T00:21:44;25.40;;;13.82;;
76966;SDS011;65904;52.278;20.972;2023-11-19T00:24:31;36.38;;;14.85;;
76966;SDS011;65904;52.278;20.972;2023-11-19T00:27:17;24.30;;;13.00;;
76966;SDS011;65904;52.278;20.972;2023-11-19T00:30:06;29.42;;;13.40;;
76966;SDS011;65904;52.278;20.972;2023-11-19T00:32:53;25.45;;;13.57;;
76966;SDS011;65904;52.278;20.972;2023-11-19T00:35:39;29.95;;;14.52;;
76966;SDS011;65904;52.278;20.972;2023-11-19T00:38:25;28.90;;;14.20;;
76966;SDS011;65904;52.278;20.972;2023-11-19T00:41:11;35.47;;;15.18;;
76966;SDS011;65904;52.278;20.972;2023-11-19T00:43:59;23.98;;;12.93;;
76966;SDS011;65904;52.278;20.972;2023-11-19T00:46:46;35.92;;;15.25;;
76966;SDS011;65904;52.278;20.972;2023-11-19T00:49:33;29.95;;;14.32;;
76966;SDS011;65904;52.278;20.972;2023-11-19T00:52:19;31.42;;;14.93;;
76966;SDS011;65904;52.278;20.972;2023-11-19T00:55:06;29.50;;;14.27;;
76966;SDS011;65904;52.278;20.972;2023-11-19T00:57:52;28.75;;;15.07;;
76966;SDS011;65904;52.278;20.972;2023-11-19T01:03:29;27.88;;;13.65;;
76966;SDS011;65904;52.278;20.972;2023-11-19T01:06:26;30.50;;;14.80;;
76966;SDS011;65904;52.278;20.972;2023-11-19T01:09:13;28.35;;;14.35;;
76966;SDS011;65904;52.278;20.972;2023-11-19T01:11:59;32.05;;;15.18;;
76966;SDS011;65904;52.278;20.972;2023-11-19T01:14:46;31.63;;;14.93;;
76966;SDS011;65904;52.278;20.972;2023-11-19T01:17:32;32.45;;;15.52;;
76966;SDS011;65904;52.278;20.972;2023-11-19T01:20:19;29.27;;;14.73;;
76966;SDS011;65904;52.278;20.972;2023-11-19T01:23:05;29.10;;;14.35;;
76966;SDS011;65904;52.278;20.972;2023-11-19T01:25:52;29.30;;;14.15;;
76966;SDS011;65904;52.278;20.972;2023-11-19T01:28:38;30.63;;;16.00;;
76966;SDS011;65904;52.278;20.972;2023-11-19T01:31:29;35.75;;;16.40;;
76966;SDS011;65904;52.278;20.972;2023-11-19T01:34:15;30.25;;;14.85;;
76966;SDS011;65904;52.278;20.972;2023-11-19T01:37:03;33.75;;;14.30;;
76966;SDS011;65904;52.278;20.972;2023-11-19T01:42:36;27.10;;;11.80;;
76966;SDS011;65904;52.278;20.972;2023-11-19T01:45:26;32.88;;;15.13;;
76966;SDS011;65904;52.278;20.972;2023-11-19T01:48:15;31.77;;;14.88;;
76966;SDS011;65904;52.278;20.972;2023-11-19T01:51:01;28.73;;;14.43;;
76966;SDS011;65904;52.278;20.972;2023-11-19T01:53:49;34.08;;;15.68;;
76966;SDS011;65904;52.278;20.972;2023-11-19T01:56:36;35.42;;;15.15;;
76966;SDS011;65904;52.278;20.972;2023-11-19T01:59:24;32.38;;;16.15;;
76966;SDS011;65904;52.278;20.972;2023-11-19T02:02:11;33.38;;;14.65;;
76966;SDS011;65904;52.278;20.972;2023-11-19T02:04:58;33.90;;;15.68;;
76966;SDS011;65904;52.278;20.972;2023-11-19T02:07:44;35.55;;;16.67;;
76966;SDS011;65904;52.278;20.972;2023-11-19T02:10:32;36.47;;;16.13;;
76966;SDS011;65904;52.278;20.972;2023-11-19T02:13:19;31.65;;;14.65;;
76966;SDS011;65904;52.278;20.972;2023-11-19T02:16:05;27.77;;;13.80;;
76966;SDS011;65904;52.278;20.972;2023-11-19T02:18:54;34.60;;;15.90;;
76966;SDS011;65904;52.278;20.972;2023-11-19T02:21:40;34.35;;;17.75;;
76966;SDS011;65904;52.278;20.972;2023-11-19T02:24:26;38.75;;;15.45;;
76966;SDS011;65904;52.278;20.972;2023-11-19T02:27:19;33.20;;;16.38;;
76966;SDS011;65904;52.278;20.972;2023-11-19T02:30:12;35.88;;;15.05;;
76966;SDS011;65904;52.278;20.972;2023-11-19T02:32:59;31.48;;;16.05;;
76966;SDS011;65904;52.278;20.972;2023-11-19T02:35:49;38.55;;;17.42;;
76966;SDS011;65904;52.278;20.972;2023-11-19T02:38:35;31.20;;;16.17;;
76966;SDS011;65904;52.278;20.972;2023-11-19T02:41:21;33.38;;;16.23;;
76966;SDS011;65904;52.278;20.972;2023-11-19T02:44:08;40.10;;;18.63;;
76966;SDS011;65904;52.278;20.972;2023-11-19T02:46:57;32.00;;;16.25;;
76966;SDS011;65904;52.278;20.972;2023-11-19T02:49:44;37.05;;;17.10;;
76966;SDS011;65904;52.278;20.972;2023-11-19T02:52:30;38.35;;;16.58;;
76966;SDS011;65904;52.278;20.972;2023-11-19T02:55:21;38.65;;;18.08;;
76966;SDS011;65904;52.278;20.972;2023-11-19T02:58:08;39.85;;;17.63;;
76966;SDS011;65904;52.278;20.972;2023-11-19T03:01:00;31.67;;;15.07;;
76966;SDS011;65904;52.278;20.972;2023-11-19T03:03:58;33.05;;;16.63;;
76966;SDS011;65904;52.278;20.972;2023-11-19T03:06:45;33.00;;;15.38;;
76966;SDS011;65904;52.278;20.972;2023-11-19T03:09:32;35.47;;;15.02;;
76966;SDS011;65904;52.278;20.972;2023-11-19T03:12:18;32.88;;;15.82;;
76966;SDS011;65904;52.278;20.972;2023-11-19T03:15:05;41.78;;;17.83;;
76966;SDS011;65904;52.278;20.972;2023-11-19T03:17:54;37.35;;;17.42;;
76966;SDS011;65904;52.278;20.972;2023-11-19T03:20:41;34.15;;;17.25;;
76966;SDS011;65904;52.278;20.972;2023-11-19T03:23:27;34.72;;;14.80;;
76966;SDS011;65904;52.278;20.972;2023-11-19T03:26:14;37.63;;;16.80;;
76966;SDS011;65904;52.278;20.972;2023-11-19T03:29:00;33.72;;;15.70;;
76966;SDS011;65904;52.278;20.972;2023-11-19T03:31:46;39.08;;;15.63;;
76966;SDS011;65904;52.278;20.972;2023-11-19T03:34:32;35.25;;;16.08;;
76966;SDS011;65904;52.278;20.972;2023-11-19T03:37:19;42.55;;;18.15;;
76966;SDS011;65904;52.278;20.972;2023-11-19T03:40:06;37.47;;;16.40;;
76966;SDS011;65904;52.278;20.972;2023-11-19T03:42:53;33.08;;;15.70;;
76966;SDS011;65904;52.278;20.972;2023-11-19T03:45:41;32.97;;;15.45;;
76966;SDS011;65904;52.278;20.972;2023-11-19T03:48:27;40.63;;;16.08;;
76966;SDS011;65904;52.278;20.972;2023-11-19T03:51:13;30.00;;;15.63;;
76966;SDS011;65904;52.278;20.972;2023-11-19T03:54:01;34.65;;;15.90;;
76966;SDS011;65904;52.278;20.972;2023-11-19T03:59:33;33.42;;;14.07;;
76966;SDS011;65904;52.278;20.972;2023-11-19T04:02:19;30.45;;;14.52;;
76966;SDS011;65904;52.278;20.972;2023-11-19T04:05:05;36.22;;;16.05;;
76966;SDS011;65904;52.278;20.972;2023-11-19T04:07:52;35.92;;;15.30;;
76966;SDS011;65904;52.278;20.972;2023-11-19T04:10:40;38.38;;;15.50;;
76966;SDS011;65904;52.278;20.972;2023-11-19T04:13:26;37.40;;;16.55;;
76966;SDS011;65904;52.278;20.972;2023-11-19T04:16:12;35.00;;;15.00;;
76966;SDS011;65904;52.278;20.972;2023-11-19T04:18:59;32.90;;;16.33;;
76966;SDS011;65904;52.278;20.972;2023-11-19T04:21:46;36.67;;;14.95;;
76966;SDS011;65904;52.278;20.972;2023-11-19T04:24:32;32.90;;;15.10;;
76966;SDS011;65904;52.278;20.972;2023-11-19T04:27:19;35.33;;;14.00;;
76966;SDS011;65904;52.278;20.972;2023-11-19T04:30:06;29.05;;;13.70;;
76966;SDS011;65904;52.278;20.972;2023-11-19T04:32:54;37.28;;;14.93;;
76966;SDS011;65904;52.278;20.972;2023-11-19T04:35:40;27.50;;;12.82;;
76966;SDS011;65904;52.278;20.972;2023-11-19T04:38:26;33.22;;;14.45;;
76966;SDS011;65904;52.278;20.972;2023-11-19T04:41:12;33.78;;;14.88;;
76966;SDS011;65904;52.278;20.972;2023-11-19T04:44:00;34.38;;;15.80;;
76966;SDS011;65904;52.278;20.972;2023-11-19T04:49:32;25.88;;;12.02;;
76966;SDS011;65904;52.278;20.972;2023-11-19T04:52:18;40.90;;;16.73;;
76966;SDS011;65904;52.278;20.972;2023-11-19T04:55:04;34.00;;;14.68;;
76966;SDS011;65904;52.278;20.972;2023-11-19T04:57:53;32.95;;;13.25;;
76966;SDS011;65904;52.278;20.972;2023-11-19T05:00:41;33.72;;;14.10;;
76966;SDS011;65904;52.278;20.972;2023-11-19T05:03:27;35.33;;;13.38;;
76966;SDS011;65904;52.278;20.972;2023-11-19T05:06:13;29.25;;;12.98;;
76966;SDS011;65904;52.278;20.972;2023-11-19T05:08:59;34.03;;;13.32;;
76966;SDS011;65904;52.278;20.972;2023-11-19T05:11:48;33.90;;;13.50;;
76966;SDS011;65904;52.278;20.972;2023-11-19T05:14:34;34.97;;;13.90;;
76966;SDS011;65904;52.278;20.972;2023-11-19T05:17:23;32.13;;;14.57;;
76966;SDS011;65904;52.278;20.972;2023-11-19T05:20:09;29.80;;;14.43;;
76966;SDS011;65904;52.278;20.972;2023-11-19T05:25:44;24.75;;;11.35;;
76966;SDS011;65904;52.278;20.972;2023-11-19T05:28:31;22.77;;;10.18;;
76966;SDS011;65904;52.278;20.972;2023-11-19T05:31:17;29.20;;;11.95;;
76966;SDS011;65904;52.278;20.972;2023-11-19T05:34:05;24.33;;;11.30;;
76966;SDS011;65904;52.278;20.972;2023-11-19T05:36:51;20.23;;;10.48;;
76966;SDS011;65904;52.278;20.972;2023-11-19T05:39:38;24.33;;;11.15;;
76966;SDS011;65904;52.278;20.972;2023-11-19T05:42:24;23.73;;;10.48;;
76966;SDS011;65904;52.278;20.972;2023-11-19T05:45:11;20.25;;;9.82;;
76966;SDS011;65904;52.278;20.972;2023-11-19T05:47:58;23.02;;;11.52;;
76966;SDS011;65904;52.278;20.972;2023-11-19T05:50:45;26.60;;;11.07;;
76966;SDS011;65904;52.278;20.972;2023-11-19T05:53:33;24.00;;;9.75;;
76966;SDS011;65904;52.278;20.972;2023-11-19T05:56:19;22.52;;;10.45;;
76966;SDS011;65904;52.278;20.972;2023-11-19T05:59:06;27.00;;;10.85;;
76966;SDS011;65904;52.278;20.972;2023-11-19T06:01:59;21.23;;;8.95;;
76966;SDS011;65904;52.278;20.972;2023-11-19T06:04:45;23.65;;;10.25;;
76966;SDS011;65904;52.278;20.972;2023-11-19T06:07:33;26.73;;;10.45;;
76966;SDS011;65904;52.278;20.972;2023-11-19T06:10:20;21.02;;;9.70;;
76966;SDS011;65904;52.278;20.972;2023-11-19T06:13:06;19.02;;;7.55;;
76966;SDS011;65904;52.278;20.972;2023-11-19T06:15:54;19.88;;;10.23;;
76966;SDS011;65904;52.278;20.972;2023-11-19T06:18:40;24.77;;;9.68;;
76966;SDS011;65904;52.278;20.972;2023-11-19T06:21:28;22.20;;;10.00;;
76966;SDS011;65904;52.278;20.972;2023-11-19T06:24:15;19.33;;;8.18;;
76966;SDS011;65904;52.278;20.972;2023-11-19T06:27:02;18.98;;;8.57;;
76966;SDS011;65904;52.278;20.972;2023-11-19T06:29:48;17.67;;;7.72;;
76966;SDS011;65904;52.278;20.972;2023-11-19T06:32:35;19.63;;;8.13;;
76966;SDS011;65904;52.278;20.972;2023-11-19T06:35:21;15.38;;;7.75;;
76966;SDS011;65904;52.278;20.972;2023-11-19T06:38:07;19.05;;;8.70;;
76966;SDS011;65904;52.278;20.972;2023-11-19T06:40:55;18.60;;;8.23;;
76966;SDS011;65904;52.278;20.972;2023-11-19T06:46:28;15.77;;;7.20;;
76966;SDS011;65904;52.278;20.972;2023-11-19T06:49:14;10.95;;;5.80;;
76966;SDS011;65904;52.278;20.972;2023-11-19T06:52:00;13.60;;;5.20;;
76966;SDS011;65904;52.278;20.972;2023-11-19T06:54:47;9.85;;;5.95;;
76966;SDS011;65904;52.278;20.972;2023-11-19T06:57:34;10.10;;;5.65;;
76966;SDS011;65904;52.278;20.972;2023-11-19T07:00:20;12.70;;;7.15;;
76966;SDS011;65904;52.278;20.972;2023-11-19T07:03:06;12.43;;;7.13;;
76966;SDS011;65904;52.278;20.972;2023-11-19T07:05:54;12.93;;;7.28;;
76966;SDS011;65904;52.278;20.972;2023-11-19T07:08:40;10.88;;;6.03;;
76966;SDS011;65904;52.278;20.972;2023-11-19T07:11:29;9.75;;;5.55;;
76966;SDS011;65904;52.278;20.972;2023-11-19T07:14:17;12.10;;;6.15;;
76966;SDS011;65904;52.278;20.972;2023-11-19T07:17:04;11.38;;;5.50;;
76966;SDS011;65904;52.278;20.972;2023-11-19T07:19:50;12.43;;;6.40;;
76966;SDS011;65904;52.278;20.972;2023-11-19T07:22:36;13.77;;;6.82;;
76966;SDS011;65904;52.278;20.972;2023-11-19T07:25:22;13.85;;;7.30;;
76966;SDS011;65904;52.278;20.972;2023-11-19T07:28:09;14.23;;;6.80;;
76966;SDS011;65904;52.278;20.972;2023-11-19T07:30:56;11.93;;;6.32;;
76966;SDS011;65904;52.278;20.972;2023-11-19T07:33:42;11.25;;;7.00;;
76966;SDS011;65904;52.278;20.972;2023-11-19T07:36:28;12.60;;;7.30;;
76966;SDS011;65904;52.278;20.972;2023-11-19T07:39:15;10.75;;;5.43;;
76966;SDS011;65904;52.278;20.972;2023-11-19T07:42:01;7.32;;;4.57;;
76966;SDS011;65904;52.278;20.972;2023-11-19T07:44:48;8.70;;;5.50;;
76966;SDS011;65904;52.278;20.972;2023-11-19T07:47:35;11.80;;;5.95;;
76966;SDS011;65904;52.278;20.972;2023-11-19T07:50:22;12.70;;;5.88;;
76966;SDS011;65904;52.278;20.972;2023-11-19T07:53:09;11.55;;;5.95;;
76966;SDS011;65904;52.278;20.972;2023-11-19T07:55:57;9.93;;;5.72;;
76966;SDS011;65904;52.278;20.972;2023-11-19T07:58:43;10.63;;;5.80;;
76966;SDS011;65904;52.278;20.972;2023-11-19T08:01:30;11.88;;;6.25;;
76966;SDS011;65904;52.278;20.972;2023-11-19T08:04:17;13.45;;;6.95;;
76966;SDS011;65904;52.278;20.972;2023-11-19T08:09:50;11.77;;;5.45;;
76966;SDS011;65904;52.278;20.972;2023-11-19T08:12:36;11.82;;;7.07;;
76966;SDS011;65904;52.278;20.972;2023-11-19T08:15:22;14.68;;;7.28;;
76966;SDS011;65904;52.278;20.972;2023-11-19T08:18:08;12.20;;;6.22;;
76966;SDS011;65904;52.278;20.972;2023-11-19T08:20:56;14.88;;;7.38;;
76966;SDS011;65904;52.278;20.972;2023-11-19T08:23:43;12.90;;;6.25;;
76966;SDS011;65904;52.278;20.972;2023-11-19T08:26:29;8.80;;;5.05;;
76966;SDS011;65904;52.278;20.972;2023-11-19T08:29:16;13.68;;;6.15;;
76966;SDS011;65904;52.278;20.972;2023-11-19T08:32:01;9.63;;;6.10;;
76966;SDS011;65904;52.278;20.972;2023-11-19T08:34:48;12.55;;;6.32;;
76966;SDS011;65904;52.278;20.972;2023-11-19T08:37:36;11.82;;;6.10;;
76966;SDS011;65904;52.278;20.972;2023-11-19T08:40:23;13.60;;;6.47;;
76966;SDS011;65904;52.278;20.972;2023-11-19T08:43:09;12.43;;;6.53;;
76966;SDS011;65904;52.278;20.972;2023-11-19T08:45:56;12.48;;;6.05;;
76966;SDS011;65904;52.278;20.972;2023-11-19T08:48:42;13.43;;;7.43;;
76966;SDS011;65904;52.278;20.972;2023-11-19T08:51:28;13.25;;;6.70;;
76966;SDS011;65904;52.278;20.972;2023-11-19T08:54:15;11.50;;;5.97;;
76966;SDS011;65904;52.278;20.972;2023-11-19T08:57:02;11.90;;;6.60;;
76966;SDS011;65904;52.278;20.972;2023-11-19T08:59:48;13.85;;;6.60;;
76966;SDS011;65904;52.278;20.972;2023-11-19T09:02:34;12.38;;;6.85;;
76966;SDS011;65904;52.278;20.972;2023-11-19T09:05:21;10.43;;;5.68;;
76966;SDS011;65904;52.278;20.972;2023-11-19T09:08:07;11.38;;;6.43;;
76966;SDS011;65904;52.278;20.972;2023-11-19T09:10:55;11.98;;;6.45;;
76966;SDS011;65904;52.278;20.972;2023-11-19T09:16:27;14.77;;;6.47;;
76966;SDS011;65904;52.278;20.972;2023-11-19T09:19:13;11.85;;;6.38;;
76966;SDS011;65904;52.278;20.972;2023-11-19T09:21:59;12.10;;;7.07;;
76966;SDS011;65904;52.278;20.972;2023-11-19T09:24:45;12.10;;;6.53;;
76966;SDS011;65904;52.278;20.972;2023-11-19T09:27:33;11.02;;;6.70;;
76966;SDS011;65904;52.278;20.972;2023-11-19T09:30:20;12.18;;;6.40;;
76966;SDS011;65904;52.278;20.972;2023-11-19T09:33:06;11.93;;;6.63;;
76966;SDS011;65904;52.278;20.972;2023-11-19T09:35:52;11.18;;;5.97;;
76966;SDS011;65904;52.278;20.972;2023-11-19T09:38:39;11.45;;;5.65;;
76966;SDS011;65904;52.278;20.972;2023-11-19T09:41:25;15.00;;;7.15;;
76966;SDS011;65904;52.278;20.972;2023-11-19T09:44:13;11.68;;;5.97;;
76966;SDS011;65904;52.278;20.972;2023-11-19T09:47:02;13.82;;;7.03;;
76966;SDS011;65904;52.278;20.972;2023-11-19T09:49:50;10.63;;;6.13;;
76966;SDS011;65904;52.278;20.972;2023-11-19T09:52:37;11.05;;;6.00;;
76966;SDS011;65904;52.278;20.972;2023-11-19T09:55:23;10.02;;;5.85;;
76966;SDS011;65904;52.278;20.972;2023-11-19T09:58:10;16.17;;;7.82;;
76966;SDS011;65904;52.278;20.972;2023-11-19T10:01:00;13.63;;;7.63;;
76966;SDS011;65904;52.278;20.972;2023-11-19T10:03:51;14.05;;;7.85;;
76966;SDS011;65904;52.278;20.972;2023-11-19T10:06:41;14.55;;;7.50;;
76966;SDS011;65904;52.278;20.972;2023-11-19T10:09:28;12.75;;;7.60;;
76966;SDS011;65904;52.278;20.972;2023-11-19T10:12:14;12.85;;;7.82;;
76966;SDS011;65904;52.278;20.972;2023-11-19T10:15:01;14.00;;;7.10;;
76966;SDS011;65904;52.278;20.972;2023-11-19T10:17:49;16.00;;;8.25;;
76966;SDS011;65904;52.278;20.972;2023-11-19T10:20:35;15.35;;;7.72;;
76966;SDS011;65904;52.278;20.972;2023-11-19T10:23:22;14.30;;;7.50;;
76966;SDS011;65904;52.278;20.972;2023-11-19T10:26:09;14.82;;;8.15;;
76966;SDS011;65904;52.278;20.972;2023-11-19T10:28:55;13.40;;;7.75;;
76966;SDS011;65904;52.278;20.972;2023-11-19T10:31:43;15.27;;;8.00;;
76966;SDS011;65904;52.278;20.972;2023-11-19T10:34:43;13.57;;;7.93;;
76966;SDS011;65904;52.278;20.972;2023-11-19T10:37:29;16.88;;;8.65;;
76966;SDS011;65904;52.278;20.972;2023-11-19T10:40:16;13.38;;;7.22;;
76966;SDS011;65904;52.278;20.972;2023-11-19T10:43:04;13.50;;;7.90;;
76966;SDS011;65904;52.278;20.972;2023-11-19T10:45:52;17.83;;;8.13;;
76966;SDS011;65904;52.278;20.972;2023-11-19T10:48:38;15.65;;;8.07;;
76966;SDS011;65904;52.278;20.972;2023-11-19T10:51:25;17.73;;;9.18;;
76966;SDS011;65904;52.278;20.972;2023-11-19T10:54:12;15.93;;;8.40;;
76966;SDS011;65904;52.278;20.972;2023-11-19T10:57:04;15.48;;;8.23;;
76966;SDS011;65904;52.278;20.972;2023-11-19T10:59:55;14.65;;;8.35;;
76966;SDS011;65904;52.278;20.972;2023-11-19T11:02:47;17.02;;;8.85;;
76966;SDS011;65904;52.278;20.972;2023-11-19T11:05:39;14.15;;;7.28;;
76966;SDS011;65904;52.278;20.972;2023-11-19T11:08:28;14.73;;;7.57;;
76966;SDS011;65904;52.278;20.972;2023-11-19T11:11:16;14.50;;;8.40;;
76966;SDS011;65904;52.278;20.972;2023-11-19T11:14:06;16.35;;;9.00;;
76966;SDS011;65904;52.278;20.972;2023-11-19T11:16:53;15.70;;;7.50;;
76966;SDS011;65904;52.278;20.972;2023-11-19T11:19:41;12.88;;;7.15;;
76966;SDS011;65904;52.278;20.972;2023-11-19T11:22:28;14.27;;;7.63;;
76966;SDS011;65904;52.278;20.972;2023-11-19T11:25:31;13.52;;;7.35;;
76966;SDS011;65904;52.278;20.972;2023-11-19T11:28:26;18.33;;;9.13;;
76966;SDS011;65904;52.278;20.972;2023-11-19T11:31:25;13.70;;;7.88;;
76966;SDS011;65904;52.278;20.972;2023-11-19T11:34:31;15.57;;;7.65;;
76966;SDS011;65904;52.278;20.972;2023-11-19T11:37:31;17.30;;;9.23;;
76966;SDS011;65904;52.278;20.972;2023-11-19T11:40:20;14.98;;;8.27;;
76966;SDS011;65904;52.278;20.972;2023-11-19T11:49:42;11.82;;;6.63;;
76966;SDS011;65904;52.278;20.972;2023-11-19T11:52:28;16.15;;;8.38;;
76966;SDS011;65904;52.278;20.972;2023-11-19T11:55:15;14.63;;;8.43;;
76966;SDS011;65904;52.278;20.972;2023-11-19T11:58:01;18.17;;;9.98;;
76966;SDS011;65904;52.278;20.972;2023-11-19T12:00:48;15.90;;;8.40;;
76966;SDS011;65904;52.278;20.972;2023-11-19T12:03:37;16.23;;;9.75;;
76966;SDS011;65904;52.278;20.972;2023-11-19T12:06:22;20.40;;;9.68;;
76966;SDS011;65904;52.278;20.972;2023-11-19T12:09:09;17.00;;;9.73;;
76966;SDS011;65904;52.278;20.972;2023-11-19T12:12:06;15.77;;;8.20;;
76966;SDS011;65904;52.278;20.972;2023-11-19T12:15:01;16.35;;;8.02;;
76966;SDS011;65904;52.278;20.972;2023-11-19T12:17:53;15.25;;;8.80;;
76966;SDS011;65904;52.278;20.972;2023-11-19T12:20:42;18.70;;;9.82;;
76966;SDS011;65904;52.278;20.972;2023-11-19T12:23:28;16.60;;;8.50;;
76966;SDS011;65904;52.278;20.972;2023-11-19T12:26:21;16.42;;;8.68;;
76966;SDS011;65904;52.278;20.972;2023-11-19T12:29:16;18.15;;;9.35;;
76966;SDS011;65904;52.278;20.972;2023-11-19T12:32:04;17.40;;;9.30;;
76966;SDS011;65904;52.278;20.972;2023-11-19T12:34:50;15.70;;;8.90;;
76966;SDS011;65904;52.278;20.972;2023-11-19T12:37:41;15.85;;;9.18;;
76966;SDS011;65904;52.278;20.972;2023-11-19T12:40:28;18.40;;;8.32;;
76966;SDS011;65904;52.278;20.972;2023-11-19T12:43:21;16.38;;;8.40;;
76966;SDS011;65904;52.278;20.972;2023-11-19T12:46:16;22.58;;;10.85;;
76966;SDS011;65904;52.278;20.972;2023-11-19T12:49:03;18.33;;;8.55;;
76966;SDS011;65904;52.278;20.972;2023-11-19T12:51:50;21.65;;;9.00;;
76966;SDS011;65904;52.278;20.972;2023-11-19T12:54:37;18.33;;;9.50;;
76966;SDS011;65904;52.278;20.972;2023-11-19T12:57:35;16.70;;;8.85;;
76966;SDS011;65904;52.278;20.972;2023-11-19T13:00:22;19.10;;;9.02;;
76966;SDS011;65904;52.278;20.972;2023-11-19T13:06:00;15.80;;;8.63;;
76966;SDS011;65904;52.278;20.972;2023-11-19T13:08:48;15.98;;;6.75;;
76966;SDS011;65904;52.278;20.972;2023-11-19T13:11:38;14.55;;;7.82;;
76966;SDS011;65904;52.278;20.972;2023-11-19T13:14:35;14.05;;;7.78;;
76966;SDS011;65904;52.278;20.972;2023-11-19T13:17:23;16.02;;;8.68;;
76966;SDS011;65904;52.278;20.972;2023-11-19T13:20:10;15.30;;;7.72;;
76966;SDS011;65904;52.278;20.972;2023-11-19T13:22:59;14.23;;;7.22;;
76966;SDS011;65904;52.278;20.972;2023-11-19T13:25:46;18.92;;;8.82;;
76966;SDS011;65904;52.278;20.972;2023-11-19T13:28:33;15.50;;;8.38;;
76966;SDS011;65904;52.278;20.972;2023-11-19T13:31:19;16.50;;;9.38;;
76966;SDS011;65904;52.278;20.972;2023-11-19T13:34:06;17.73;;;8.20;;
76966;SDS011;65904;52.278;20.972;2023-11-19T13:36:52;17.05;;;8.93;;
76966;SDS011;65904;52.278;20.972;2023-11-19T13:39:41;15.85;;;8.70;;
76966;SDS011;65904;52.278;20.972;2023-11-19T13:42:27;17.73;;;8.93;;
76966;SDS011;65904;52.278;20.972;2023-11-19T13:45:15;18.40;;;9.07;;
76966;SDS011;65904;52.278;20.972;2023-11-19T13:48:02;19.85;;;10.27;;
76966;SDS011;65904;52.278;20.972;2023-11-19T13:50:49;19.17;;;9.50;;
76966;SDS011;65904;52.278;20.972;2023-11-19T13:53:35;19.52;;;9.63;;
76966;SDS011;65904;52.278;20.972;2023-11-19T13:56:22;18.67;;;9.25;;
76966;SDS011;65904;52.278;20.972;2023-11-19T13:59:08;21.60;;;10.40;;
76966;SDS011;65904;52.278;20.972;2023-11-19T14:01:56;17.50;;;9.38;;
76966;SDS011;65904;52.278;20.972;2023-11-19T14:04:41;24.02;;;10.40;;
76966;SDS011;65904;52.278;20.972;2023-11-19T14:07:28;21.23;;;9.98;;
76966;SDS011;65904;52.278;20.972;2023-11-19T14:10:14;20.23;;;9.63;;
76966;SDS011;65904;52.278;20.972;2023-11-19T14:13:00;20.13;;;10.40;;
76966;SDS011;65904;52.278;20.972;2023-11-19T14:15:46;21.35;;;10.77;;
76966;SDS011;65904;52.278;20.972;2023-11-19T14:18:35;16.60;;;9.07;;
76966;SDS011;65904;52.278;20.972;2023-11-19T14:24:09;18.08;;;9.63;;
76966;SDS011;65904;52.278;20.972;2023-11-19T14:26:55;23.42;;;10.55;;
76966;SDS011;65904;52.278;20.972;2023-11-19T14:32:30;16.88;;;8.93;;
76966;SDS011;65904;52.278;20.972;2023-11-19T14:35:17;21.05;;;10.15;;
76966;SDS011;65904;52.278;20.972;2023-11-19T14:38:04;19.35;;;10.68;;
76966;SDS011;65904;52.278;20.972;2023-11-19T14:40:54;19.42;;;10.48;;
76966;SDS011;65904;52.278;20.972;2023-11-19T14:43:40;23.30;;;12.07;;
76966;SDS011;65904;52.278;20.972;2023-11-19T14:46:27;20.80;;;10.38;;
76966;SDS011;65904;52.278;20.972;2023-11-19T14:49:13;20.73;;;10.80;;
76966;SDS011;65904;52.278;20.972;2023-11-19T14:52:00;19.80;;;9.90;;
76966;SDS011;65904;52.278;20.972;2023-11-19T14:54:47;21.58;;;11.25;;
76966;SDS011;65904;52.278;20.972;2023-11-19T14:57:35;25.73;;;12.27;;
76966;SDS011;65904;52.278;20.972;2023-11-19T15:03:10;20.67;;;9.30;;
76966;SDS011;65904;52.278;20.972;2023-11-19T15:05:56;26.50;;;12.13;;
76966;SDS011;65904;52.278;20.972;2023-11-19T15:08:43;23.92;;;11.40;;
76966;SDS011;65904;52.278;20.972;2023-11-19T15:11:30;24.67;;;11.45;;
76966;SDS011;65904;52.278;20.972;2023-11-19T15:14:17;26.00;;;12.30;;
76966;SDS011;65904;52.278;20.972;2023-11-19T15:17:03;30.23;;;13.65;;
76966;SDS011;65904;52.278;20.972;2023-11-19T15:22:37;19.52;;;9.60;;
76966;SDS011;65904;52.278;20.972;2023-11-19T15:25:25;21.58;;;10.63;;
76966;SDS011;65904;52.278;20.972;2023-11-19T15:28:11;24.52;;;11.65;;
76966;SDS011;65904;52.278;20.972;2023-11-19T15:30:57;20.70;;;11.00;;
76966;SDS011;65904;52.278;20.972;2023-11-19T15:33:43;27.73;;;11.93;;
76966;SDS011;65904;52.278;20.972;2023-11-19T15:36:31;18.98;;;10.52;;
76966;SDS011;65904;52.278;20.972;2023-11-19T15:39:19;22.73;;;10.98;;
76966;SDS011;65904;52.278;20.972;2023-11-19T15:42:06;21.27;;;11.80;;
76966;SDS011;65904;52.278;20.972;2023-11-19T15:44:54;19.90;;;10.20;;
76966;SDS011;65904;52.278;20.972;2023-11-19T15:47:40;20.08;;;10.45;;
76966;SDS011;65904;52.278;20.972;2023-11-19T15:50:26;17.05;;;9.98;;
76966;SDS011;65904;52.278;20.972;2023-11-19T15:53:13;25.80;;;11.45;;
76966;SDS011;65904;52.278;20.972;2023-11-19T15:56:01;22.92;;;11.57;;
76966;SDS011;65904;52.278;20.972;2023-11-19T15:58:49;25.02;;;11.38;;
76966;SDS011;65904;52.278;20.972;2023-11-19T16:01:34;22.08;;;10.70;;
76966;SDS011;65904;52.278;20.972;2023-11-19T16:04:21;25.30;;;11.43;;
76966;SDS011;65904;52.278;20.972;2023-11-19T16:07:06;26.83;;;12.10;;
76966;SDS011;65904;52.278;20.972;2023-11-19T16:09:53;23.05;;;11.07;;
76966;SDS011;65904;52.278;20.972;2023-11-19T16:12:40;24.13;;;11.57;;
76966;SDS011;65904;52.278;20.972;2023-11-19T16:15:27;23.30;;;10.13;;
76966;SDS011;65904;52.278;20.972;2023-11-19T16:18:13;24.88;;;11.00;;
76966;SDS011;65904;52.278;20.972;2023-11-19T16:20:59;22.95;;;11.32;;
76966;SDS011;65904;52.278;20.972;2023-11-19T16:23:46;22.95;;;11.02;;
76966;SDS011;65904;52.278;20.972;2023-11-19T16:26:32;25.33;;;12.57;;
76966;SDS011;65904;52.278;20.972;2023-11-19T16:29:20;23.33;;;10.55;;
76966;SDS011;65904;52.278;20.972;2023-11-19T16:32:08;26.13;;;11.38;;
76966;SDS011;65904;52.278;20.972;2023-11-19T16:34:54;23.33;;;11.18;;
76966;SDS011;65904;52.278;20.972;2023-11-19T16:37:40;29.98;;;11.82;;
76966;SDS011;65904;52.278;20.972;2023-11-19T16:40:26;24.30;;;11.05;;
76966;SDS011;65904;52.278;20.972;2023-11-19T16:43:12;25.33;;;11.30;;
76966;SDS011;65904;52.278;20.972;2023-11-19T16:45:58;22.08;;;11.18;;
76966;SDS011;65904;52.278;20.972;2023-11-19T16:48:46;16.85;;;10.40;;
76966;SDS011;65904;52.278;20.972;2023-11-19T16:51:32;26.27;;;11.80;;
76966;SDS011;65904;52.278;20.972;2023-11-19T16:54:19;25.52;;;11.60;;
76966;SDS011;65904;52.278;20.972;2023-11-19T16:57:05;25.38;;;11.57;;